Time;durP1;ratioP1;P1;durP2;ratioP2;P2;SDS_P1;SDS_P2;PMS_P1;PMS_P2;Temp;Humidity;BMP_temperature;BMP_pressure;BME280_temperature;BME280_humidity;BME280_pressure;Samples;Min_cycle;Max_cycle;Signal;HPM_P1;HPM_P2
2023/06/22 00:01:51;;;;;;;11.53;7.57;;;20.10;99.90;;;;;;5093581;28;20390;-85
2023/06/22 00:04:16;;;;;;;8.50;6.23;;;20.00;99.90;;;;;;5093313;28;20394;-86
2023/06/22 00:06:42;;;;;;;7.20;6.50;;;20.10;99.90;;;;;;5092959;28;20482;-86
2023/06/22 00:09:07;;;;;;;10.37;6.17;;;20.00;99.90;;;;;;5093383;28;20479;-86
2023/06/22 00:11:33;;;;;;;8.52;6.40;;;19.80;99.90;;;;;;5094090;28;20817;-85
2023/06/22 00:14:02;;;;;;;8.60;6.40;;;19.90;99.90;;;;;;5091114;28;20523;-85
2023/06/22 00:16:27;;;;;;;8.15;6.65;;;18.80;99.90;;;;;;5091097;28;20405;-85
2023/06/22 00:18:53;;;;;;;9.50;6.40;;;19.90;99.90;;;;;;5090801;28;20880;-86
2023/06/22 00:21:20;;;;;;;9.20;6.70;;;19.70;99.90;;;;;;5090387;28;20420;-86
2023/06/22 00:23:46;;;;;;;9.23;7.22;;;19.50;99.90;;;;;;5097652;28;20374;-85
2023/06/22 00:26:11;;;;;;;8.27;6.53;;;19.70;99.90;;;;;;5096971;28;20435;-85
2023/06/22 00:28:37;;;;;;;8.67;6.83;;;22.30;99.90;;;;;;5091986;28;20386;-86
2023/06/22 00:31:02;;;;;;;9.60;6.70;;;18.50;99.90;;;;;;5091890;28;21285;-86
2023/06/22 00:33:28;;;;;;;9.50;7.07;;;19.70;99.90;;;;;;5092816;28;20378;-86
2023/06/22 00:35:54;;;;;;;8.83;7.10;;;18.90;99.90;;;;;;5091207;28;20378;-85
2023/06/22 00:38:19;;;;;;;8.70;6.30;;;19.80;99.90;;;;;;5093125;28;20516;-86
2023/06/22 00:40:45;;;;;;;9.07;7.18;;;19.10;99.90;;;;;;5093088;28;20802;-85
2023/06/22 00:43:11;;;;;;;7.97;6.00;;;18.10;99.90;;;;;;5091822;28;20896;-85
2023/06/22 00:45:36;;;;;;;11.00;7.07;;;19.60;99.90;;;;;;5104713;27;20382;-86
2023/06/22 00:48:03;;;;;;;8.83;6.87;;;19.60;99.90;;;;;;5102924;27;20393;-84
2023/06/22 00:50:33;;;;;;;9.38;6.80;;;19.80;99.90;;;;;;5091775;28;20404;-86
2023/06/22 00:53:00;;;;;;;9.70;6.50;;;19.60;99.90;;;;;;5091237;28;20386;-85
2023/06/22 00:55:27;;;;;;;12.35;7.15;;;19.70;99.90;;;;;;5091291;28;20485;-86
2023/06/22 00:57:56;;;;;;;9.93;6.63;;;19.50;99.90;;;;;;5091329;28;20440;-85
2023/06/22 01:00:24;;;;;;;11.30;6.70;;;19.60;99.90;;;;;;5092668;28;20382;-85
2023/06/22 01:02:53;;;;;;;8.57;6.78;;;19.40;99.90;;;;;;5091218;28;20888;-85
2023/06/22 01:05:20;;;;;;;7.80;6.32;;;19.50;99.90;;;;;;5091180;28;20401;-85
2023/06/22 01:08:05;;;;;;;8.45;7.55;;;19.40;99.90;;;;;;5092287;28;20428;-86
2023/06/22 01:10:46;;;;;;;8.55;6.70;;;19.50;99.90;;;;;;5089950;28;20771;-85
2023/06/22 01:13:36;;;;;;;7.72;6.30;;;19.40;99.90;;;;;;5091301;28;20390;-85
2023/06/22 01:16:14;;;;;;;8.93;6.70;;;19.40;99.90;;;;;;5091729;28;20390;-86
2023/06/22 01:18:42;;;;;;;9.50;6.90;;;19.50;99.90;;;;;;5093610;28;20409;-86
2023/06/22 01:21:15;;;;;;;7.45;6.30;;;19.40;99.90;;;;;;5096822;28;20377;-85
2023/06/22 01:24:05;;;;;;;7.82;6.55;;;18.70;99.90;;;;;;5093091;28;20417;-86
2023/06/22 01:26:48;;;;;;;8.20;6.63;;;19.40;99.90;;;;;;5104129;28;20417;-85
2023/06/22 01:29:16;;;;;;;9.38;7.00;;;19.40;99.90;;;;;;5093476;28;20408;-85
2023/06/22 01:31:44;;;;;;;10.00;7.20;;;18.40;99.90;;;;;;5092738;28;20439;-86
2023/06/22 01:34:12;;;;;;;10.80;7.20;;;19.30;99.90;;;;;;5093094;28;20382;-86
2023/06/22 01:36:38;;;;;;;11.05;7.80;;;18.70;99.90;;;;;;5091014;28;20385;-85
2023/06/22 01:39:05;;;;;;;11.05;7.55;;;19.10;99.90;;;;;;5090582;28;20374;-86
2023/06/22 01:41:38;;;;;;;8.77;6.80;;;18.00;99.90;;;;;;5091912;28;20390;-85
2023/06/22 01:44:08;;;;;;;10.60;7.03;;;19.40;99.90;;;;;;5091008;28;20521;-85
2023/06/22 01:46:39;;;;;;;10.88;6.82;;;19.80;99.90;;;;;;5090328;28;20864;-85
2023/06/22 01:49:05;;;;;;;10.50;7.30;;;19.20;99.90;;;;;;5090549;28;20713;-85
2023/06/22 01:51:31;;;;;;;11.32;6.93;;;19.20;99.90;;;;;;5091900;28;20394;-85
2023/06/22 01:53:57;;;;;;;9.85;7.05;;;19.20;99.90;;;;;;5090330;28;20382;-85
2023/06/22 01:56:22;;;;;;;10.60;6.90;;;21.00;99.90;;;;;;5090965;28;20374;-86
2023/06/22 01:59:13;;;;;;;9.52;7.00;;;18.40;99.90;;;;;;5090088;28;20740;-85
2023/06/22 02:02:03;;;;;;;9.75;6.30;;;19.10;99.90;;;;;;5074528;28;20829;-86
2023/06/22 02:04:37;;;;;;;8.82;7.15;;;19.10;99.90;;;;;;5091497;28;20382;-85
2023/06/22 02:07:08;;;;;;;10.75;7.22;;;18.50;99.90;;;;;;5088358;28;20390;-86
2023/06/22 02:09:37;;;;;;;9.52;6.30;;;19.20;99.90;;;;;;5101613;28;20430;-85
2023/06/22 02:12:04;;;;;;;8.80;6.73;;;19.00;99.90;;;;;;5111780;28;20394;-85
2023/06/22 02:14:30;;;;;;;14.00;7.50;;;19.10;99.90;;;;;;5104030;28;20921;-85
2023/06/22 02:16:58;;;;;;;9.20;6.90;;;19.00;99.90;;;;;;5089341;28;20402;-86
2023/06/22 02:19:25;;;;;;;12.13;7.20;;;19.20;99.90;;;;;;5091093;28;20420;-85
2023/06/22 02:21:51;;;;;;;9.68;6.88;;;18.30;99.90;;;;;;5090187;28;20756;-85
2023/06/22 02:24:16;;;;;;;9.43;7.23;;;20.00;99.90;;;;;;5090435;28;20397;-86
2023/06/22 02:26:45;;;;;;;11.20;7.10;;;20.50;99.90;;;;;;5090840;28;20385;-86
2023/06/22 02:29:11;;;;;;;9.10;7.18;;;19.10;99.90;;;;;;5090280;28;20409;-86
2023/06/22 02:31:36;;;;;;;7.18;6.40;;;19.10;99.90;;;;;;5091157;28;20374;-86
2023/06/22 02:34:02;;;;;;;9.35;6.38;;;18.40;99.90;;;;;;5090283;28;21042;-86
2023/06/22 02:36:30;;;;;;;8.77;6.30;;;18.10;99.90;;;;;;5099672;27;20382;-85
2023/06/22 02:39:00;;;;;;;9.40;7.03;;;19.00;99.90;;;;;;5104143;27;20401;-86
2023/06/22 02:41:26;;;;;;;8.13;6.80;;;18.40;99.90;;;;;;5090018;28;20459;-85
2023/06/22 02:43:52;;;;;;;8.48;7.07;;;19.80;99.90;;;;;;5090114;28;20382;-86
2023/06/22 02:46:17;;;;;;;10.60;6.80;;;19.40;99.90;;;;;;5089243;28;21222;-86
2023/06/22 02:48:43;;;;;;;10.25;7.07;;;17.90;99.90;;;;;;5091502;28;20394;-85
2023/06/22 02:51:08;;;;;;;10.40;7.03;;;18.40;99.90;;;;;;5091171;28;20405;-86
2023/06/22 02:53:34;;;;;;;7.18;6.18;;;18.40;99.90;;;;;;5090330;28;20374;-85
2023/06/22 02:56:03;;;;;;;8.00;6.47;;;18.70;99.90;;;;;;5090950;28;20897;-86
2023/06/22 02:58:28;;;;;;;9.60;6.60;;;21.70;99.90;;;;;;5090195;28;20868;-85
2023/06/22 03:00:54;;;;;;;10.63;7.47;;;18.80;99.90;;;;;;5089251;28;20401;-86
2023/06/22 03:03:19;;;;;;;12.03;7.73;;;18.70;99.90;;;;;;5091046;28;20386;-86
2023/06/22 03:05:45;;;;;;;11.90;7.00;;;18.20;99.90;;;;;;5090393;28;20390;-86
2023/06/22 03:08:11;;;;;;;10.73;6.75;;;17.80;99.90;;;;;;5091060;28;20439;-85
2023/06/22 03:10:37;;;;;;;9.70;7.20;;;17.90;99.90;;;;;;5090370;28;20431;-86
2023/06/22 03:13:02;;;;;;;9.30;6.60;;;18.30;99.90;;;;;;5089756;28;20386;-85
2023/06/22 03:15:29;;;;;;;7.93;6.47;;;17.60;99.90;;;;;;5089342;28;20378;-85
2023/06/22 03:17:55;;;;;;;9.13;7.32;;;18.60;99.90;;;;;;5090785;28;20378;-85
2023/06/22 03:20:20;;;;;;;12.45;6.93;;;20.60;99.90;;;;;;5089673;28;20382;-85
2023/06/22 03:22:48;;;;;;;11.33;6.83;;;17.40;99.90;;;;;;5089545;28;20413;-85
2023/06/22 03:25:14;;;;;;;11.02;6.28;;;18.80;99.90;;;;;;5089354;28;20390;-85
2023/06/22 03:27:40;;;;;;;10.00;6.50;;;18.70;99.90;;;;;;5089222;28;20378;-86
2023/06/22 03:30:08;;;;;;;10.10;6.80;;;18.90;99.90;;;;;;5089557;28;20481;-85
2023/06/22 03:32:34;;;;;;;8.73;6.88;;;18.90;99.90;;;;;;5089146;28;20416;-86
2023/06/22 03:34:59;;;;;;;8.30;6.13;;;18.70;99.90;;;;;;5094680;28;20871;-86
2023/06/22 03:37:26;;;;;;;10.30;6.80;;;18.90;99.90;;;;;;5093571;28;20407;-85
2023/06/22 03:39:52;;;;;;;7.75;6.55;;;18.80;99.90;;;;;;5093030;28;20398;-86
2023/06/22 03:42:17;;;;;;;10.00;7.00;;;17.80;99.90;;;;;;5092148;28;20408;-85
2023/06/22 03:44:43;;;;;;;8.47;6.87;;;17.80;99.90;;;;;;5094490;28;20385;-85
2023/06/22 03:47:09;;;;;;;9.77;6.65;;;18.70;99.90;;;;;;5103417;28;20393;-85
2023/06/22 03:49:35;;;;;;;11.60;7.40;;;18.00;99.90;;;;;;5094109;28;20406;-85
2023/06/22 03:52:02;;;;;;;7.70;6.90;;;18.90;99.90;;;;;;5093102;28;20428;-85
2023/06/22 03:54:29;;;;;;;10.63;7.38;;;21.30;99.90;;;;;;5093036;28;20385;-85
2023/06/22 03:56:56;;;;;;;14.02;7.68;;;18.00;99.90;;;;;;5096250;28;20563;-86
2023/06/22 03:59:21;;;;;;;10.50;6.93;;;18.60;99.90;;;;;;5094803;28;20402;-86
2023/06/22 04:01:47;;;;;;;8.53;6.70;;;18.50;99.90;;;;;;5092923;28;20904;-85
2023/06/22 04:04:12;;;;;;;12.00;7.00;;;20.50;99.90;;;;;;5093524;28;20384;-86
2023/06/22 04:06:38;;;;;;;10.30;6.30;;;18.50;99.90;;;;;;5090252;28;20840;-85
2023/06/22 04:09:05;;;;;;;12.13;6.80;;;18.40;99.90;;;;;;5090479;28;20386;-85
2023/06/22 04:11:31;;;;;;;8.90;6.38;;;18.10;99.90;;;;;;5104203;27;20529;-85
2023/06/22 04:13:56;;;;;;;11.05;6.75;;;18.00;99.90;;;;;;5097686;28;20385;-85
2023/06/22 04:16:22;;;;;;;8.17;7.37;;;17.50;99.90;;;;;;5091505;28;20390;-85
2023/06/22 04:18:47;;;;;;;10.55;7.40;;;17.70;99.90;;;;;;5091849;28;20382;-85
2023/06/22 04:21:13;;;;;;;8.67;6.50;;;18.70;99.90;;;;;;5092809;28;20394;-85
2023/06/22 04:23:39;;;;;;;7.70;6.80;;;19.80;99.90;;;;;;5093467;28;20390;-85
2023/06/22 04:26:05;;;;;;;10.10;7.20;;;17.80;99.90;;;;;;5091594;28;20382;-85
2023/06/22 04:28:34;;;;;;;9.35;6.97;;;18.50;99.90;;;;;;5110355;27;20386;-85
2023/06/22 04:31:02;;;;;;;12.23;7.50;;;17.70;99.90;;;;;;5098469;28;20489;-85
2023/06/22 04:33:31;;;;;;;7.97;6.80;;;20.50;99.90;;;;;;5091680;28;20439;-84
2023/06/22 04:35:57;;;;;;;9.35;6.97;;;18.80;99.90;;;;;;5087396;28;20464;-85
2023/06/22 04:38:25;;;;;;;11.30;7.00;;;18.50;99.90;;;;;;5107621;27;20547;-85
2023/06/22 04:40:50;;;;;;;10.02;6.50;;;18.70;99.90;;;;;;5094909;28;20400;-85
2023/06/22 04:43:16;;;;;;;9.80;7.15;;;18.80;99.90;;;;;;5092474;28;20401;-85
2023/06/22 04:45:42;;;;;;;8.00;6.90;;;18.60;99.90;;;;;;5090740;28;20390;-86
2023/06/22 04:48:09;;;;;;;9.90;6.87;;;18.70;99.90;;;;;;5091887;28;20465;-86
2023/06/22 04:50:50;;;;;;;8.15;6.90;;;18.70;99.90;;;;;;5091585;28;20456;-87
2023/06/22 04:53:41;;;;;;;10.77;6.90;;;18.80;99.90;;;;;;5092505;28;20938;-87
2023/06/22 04:56:07;;;;;;;6.90;6.20;;;18.90;99.90;;;;;;5108019;28;20382;-85
2023/06/22 04:58:33;;;;;;;9.95;6.90;;;19.00;99.90;;;;;;5091727;28;20400;-86
2023/06/22 05:01:03;;;;;;;8.93;7.40;;;18.90;99.90;;;;;;5090849;28;20394;-86
2023/06/22 05:03:29;;;;;;;10.63;7.40;;;18.90;99.90;;;;;;5092361;28;20418;-85
2023/06/22 05:05:54;;;;;;;8.80;6.70;;;19.10;99.90;;;;;;5091878;28;20484;-86
2023/06/22 05:08:20;;;;;;;8.30;6.95;;;19.00;99.90;;;;;;5094216;28;20397;-85
2023/06/22 05:10:48;;;;;;;9.70;7.30;;;;;;;;;;5091026;28;20493;-85
2023/06/22 05:13:14;;;;;;;11.00;7.07;;;19.10;99.90;;;;;;5090228;28;20875;-86
2023/06/22 05:15:40;;;;;;;12.97;7.30;;;19.30;99.90;;;;;;5091306;28;20390;-86
2023/06/22 05:18:06;;;;;;;9.13;7.43;;;19.40;99.90;;;;;;5090968;28;20398;-85
2023/06/22 05:20:33;;;;;;;11.45;8.10;;;19.00;99.90;;;;;;5092888;28;20468;-85
2023/06/22 05:22:58;;;;;;;10.48;6.93;;;19.30;99.90;;;;;;5096297;28;20390;-85
2023/06/22 05:25:25;;;;;;;12.63;7.70;;;19.60;99.90;;;;;;5104090;28;20396;-83
2023/06/22 05:27:51;;;;;;;11.30;7.28;;;19.50;99.90;;;;;;5107757;28;20397;-85
2023/06/22 05:30:18;;;;;;;8.13;7.22;;;19.80;99.90;;;;;;5105994;28;20420;-84
2023/06/22 05:32:44;;;;;;;10.52;7.53;;;19.80;99.90;;;;;;5095987;28;20401;-84
2023/06/22 05:35:09;;;;;;;9.48;7.65;;;19.90;99.90;;;;;;5092208;28;20374;-84
2023/06/22 05:37:35;;;;;;;10.53;7.90;;;20.00;99.90;;;;;;5091345;28;20871;-85
2023/06/22 05:40:00;;;;;;;13.30;7.60;;;20.00;99.90;;;;;;5092575;28;20394;-85
2023/06/22 05:42:26;;;;;;;8.93;7.60;;;19.90;99.90;;;;;;5093546;28;20465;-85
2023/06/22 05:44:53;;;;;;;8.13;7.33;;;21.20;99.90;;;;;;5091649;28;20390;-84
2023/06/22 05:47:18;;;;;;;11.23;7.47;;;19.80;99.90;;;;;;5089777;28;20966;-85
2023/06/22 05:49:44;;;;;;;10.00;6.90;;;20.30;99.90;;;;;;5090624;28;20489;-84
2023/06/22 05:52:09;;;;;;;9.53;7.00;;;20.10;99.90;;;;;;5093180;28;20494;-86
2023/06/22 05:54:35;;;;;;;10.17;7.20;;;20.20;99.90;;;;;;5091827;28;20420;-85
2023/06/22 05:57:01;;;;;;;8.87;7.30;;;20.20;99.90;;;;;;5089069;28;20389;-85
2023/06/22 05:59:26;;;;;;;10.02;7.85;;;20.30;99.90;;;;;;5090421;28;20860;-85
2023/06/22 06:01:52;;;;;;;10.27;7.70;;;20.40;99.90;;;;;;5090167;28;20397;-85
2023/06/22 06:04:18;;;;;;;10.65;7.88;;;22.10;99.90;;;;;;5089830;28;20428;-86
2023/06/22 06:06:44;;;;;;;8.80;7.80;;;20.50;99.90;;;;;;5088979;28;20386;-85
2023/06/22 06:09:11;;;;;;;8.82;7.00;;;20.50;99.90;;;;;;5090047;28;20455;-85
2023/06/22 06:11:37;;;;;;;10.65;8.05;;;20.80;99.90;;;;;;5090857;28;20393;-84
2023/06/22 06:14:02;;;;;;;10.90;7.93;;;21.00;99.90;;;;;;5104802;22;20434;-84
2023/06/22 06:16:28;;;;;;;9.27;8.23;;;21.10;99.90;;;;;;5080902;28;20394;-85
2023/06/22 06:18:55;;;;;;;11.47;8.53;;;22.70;99.90;;;;;;5083859;28;20407;-84
2023/06/22 06:21:21;;;;;;;9.63;8.65;;;21.20;99.90;;;;;;5081241;28;20382;-84
2023/06/22 06:23:47;;;;;;;13.93;9.80;;;21.60;99.90;;;;;;5105118;28;20394;-85
2023/06/22 06:26:12;;;;;;;14.23;8.93;;;21.20;99.90;;;;;;5121883;28;20869;-84
2023/06/22 06:28:38;;;;;;;11.35;9.70;;;21.30;99.90;;;;;;5119950;28;20378;-85
2023/06/22 06:31:07;;;;;;;13.63;10.20;;;20.60;99.90;;;;;;5117940;28;20408;-84
2023/06/22 06:33:32;;;;;;;11.40;10.20;;;21.20;99.90;;;;;;5127293;28;20398;-83
2023/06/22 06:35:58;;;;;;;11.97;9.20;;;23.10;99.90;;;;;;5112969;28;20368;-83
2023/06/22 06:38:23;;;;;;;11.60;10.40;;;21.50;99.90;;;;;;5109079;28;20455;-84
2023/06/22 06:40:49;;;;;;;12.27;8.90;;;21.60;99.90;;;;;;5103368;28;20442;-84
2023/06/22 06:43:15;;;;;;;11.57;8.90;;;23.10;99.90;;;;;;5105539;28;20399;-84
2023/06/22 06:45:40;;;;;;;13.77;9.32;;;21.90;99.90;;;;;;5104410;28;20402;-83
2023/06/22 06:48:06;;;;;;;11.67;9.70;;;22.90;99.90;;;;;;5123036;28;20387;-82
2023/06/22 06:50:31;;;;;;;10.90;9.80;;;21.90;99.90;;;;;;5119069;27;20412;-82
2023/06/22 06:52:58;;;;;;;10.00;8.93;;;21.90;99.90;;;;;;5150105;27;20420;-82
2023/06/22 06:55:25;;;;;;;13.15;9.80;;;21.80;99.90;;;;;;5139278;27;20398;-82
2023/06/22 06:57:52;;;;;;;10.80;9.63;;;21.90;99.90;;;;;;5133983;27;20391;-84
2023/06/22 07:00:18;;;;;;;12.77;9.70;;;21.90;99.90;;;;;;5094955;28;20431;-84
2023/06/22 07:02:45;;;;;;;11.07;9.15;;;21.90;99.90;;;;;;5112030;28;20727;-84
2023/06/22 07:05:12;;;;;;;10.98;9.35;;;21.40;99.90;;;;;;5113007;28;20440;-83
2023/06/22 07:07:38;;;;;;;12.05;9.65;;;22.00;99.90;;;;;;5093275;28;20746;-83
2023/06/22 07:10:05;;;;;;;10.90;8.90;;;22.10;99.90;;;;;;5093008;28;20426;-83
2023/06/22 07:12:31;;;;;;;11.55;8.93;;;21.80;99.90;;;;;;5096696;28;20889;-83
2023/06/22 07:15:11;;;;;;;10.10;9.10;;;21.80;99.90;;;;;;5111419;28;20400;-83
2023/06/22 07:17:37;;;;;;;11.10;8.88;;;22.20;99.90;;;;;;5096569;28;20954;-84
2023/06/22 07:20:13;;;;;;;11.13;8.50;;;21.90;99.90;;;;;;5097432;28;20392;-85
2023/06/22 07:22:39;;;;;;;9.20;7.53;;;22.60;99.90;;;;;;5101717;28;20395;-84
2023/06/22 07:25:09;;;;;;;9.13;7.25;;;24.10;99.90;;;;;;5122632;27;20476;-85
2023/06/22 07:27:37;;;;;;;10.43;7.65;;;23.00;99.90;;;;;;5103111;28;20426;-85
2023/06/22 07:30:04;;;;;;;9.07;8.02;;;23.80;99.90;;;;;;5117624;28;20400;-84
2023/06/22 07:32:29;;;;;;;12.90;8.80;;;23.10;99.90;;;;;;5104186;28;20388;-85
2023/06/22 07:34:55;;;;;;;10.60;8.70;;;22.30;99.90;;;;;;5103552;28;20401;-84
2023/06/22 07:37:21;;;;;;;8.57;7.20;;;22.60;99.90;;;;;;5102346;28;20403;-84
2023/06/22 07:39:46;;;;;;;8.67;7.87;;;23.40;99.90;;;;;;5122729;27;20392;-84
2023/06/22 07:42:12;;;;;;;8.93;7.53;;;22.70;99.90;;;;;;5119595;28;20388;-84
2023/06/22 07:44:37;;;;;;;11.80;7.50;;;22.70;99.90;;;;;;5115026;27;20522;-85
2023/06/22 07:47:03;;;;;;;8.70;7.53;;;22.70;99.90;;;;;;5108360;28;20475;-84
2023/06/22 07:49:29;;;;;;;11.13;7.72;;;22.60;99.90;;;;;;5122610;28;20492;-84
2023/06/22 07:51:55;;;;;;;10.45;7.43;;;23.30;99.90;;;;;;5121726;28;20392;-85
2023/06/22 07:54:20;;;;;;;10.70;7.55;;;22.70;99.90;;;;;;5116279;27;20396;-83
2023/06/22 07:56:46;;;;;;;8.93;7.70;;;23.00;99.90;;;;;;5115548;28;20383;-83
2023/06/22 07:59:12;;;;;;;7.72;6.85;;;23.30;99.90;;;;;;5096170;28;20418;-82
2023/06/22 08:01:37;;;;;;;8.63;7.30;;;23.30;99.90;;;;;;5099285;28;20472;-83
2023/06/22 08:04:03;;;;;;;9.30;7.25;;;25.10;99.90;;;;;;5099173;27;20424;-83
2023/06/22 08:06:30;;;;;;;9.40;6.90;;;23.70;99.90;;;;;;5098376;28;20463;-83
2023/06/22 08:08:58;;;;;;;12.32;7.22;;;23.90;99.90;;;;;;5097278;28;20380;-82
2023/06/22 08:11:25;;;;;;;7.80;6.53;;;24.00;99.90;;;;;;5097957;28;20485;-83
2023/06/22 08:13:51;;;;;;;9.77;7.20;;;24.20;99.90;;;;;;5116486;27;20406;-83
2023/06/22 08:16:16;;;;;;;8.00;5.90;;;23.80;99.90;;;;;;5097817;28;20822;-83
2023/06/22 08:18:42;;;;;;;8.07;6.85;;;24.30;99.90;;;;;;5098230;28;20384;-83
2023/06/22 08:21:07;;;;;;;8.30;6.50;;;24.00;99.90;;;;;;5109637;27;20411;-83
2023/06/22 08:23:33;;;;;;;7.22;6.05;;;24.50;99.90;;;;;;5137406;27;20375;-83
2023/06/22 08:25:58;;;;;;;12.17;6.93;;;25.50;99.90;;;;;;5136155;27;20382;-83
2023/06/22 08:28:24;;;;;;;9.00;6.40;;;24.70;99.90;;;;;;5118856;27;20383;-83
2023/06/22 08:30:49;;;;;;;9.32;6.82;;;24.70;99.90;;;;;;5111109;28;20401;-83
2023/06/22 08:33:15;;;;;;;7.63;6.20;;;24.70;99.90;;;;;;5109993;27;20375;-82
2023/06/22 08:35:41;;;;;;;9.00;7.13;;;25.10;99.90;;;;;;5145502;27;20385;-83
2023/06/22 08:38:08;;;;;;;7.37;6.57;;;25.10;99.90;;;;;;5144833;27;20387;-82
2023/06/22 08:40:34;;;;;;;7.90;6.40;;;25.20;99.90;;;;;;5130612;27;20412;-83
2023/06/22 08:42:59;;;;;;;8.15;6.45;;;25.80;96.30;;;;;;5116452;28;20445;-83
2023/06/22 08:45:25;;;;;;;9.50;6.87;;;25.40;99.90;;;;;;5116240;28;20392;-83
2023/06/22 08:47:50;;;;;;;6.83;5.80;;;25.50;99.90;;;;;;5118327;27;20861;-83
2023/06/22 08:50:16;;;;;;;8.48;5.53;;;25.40;49.00;;;;;;5136737;27;20402;-83
2023/06/22 08:52:41;;;;;;;7.00;5.60;;;25.50;67.90;;;;;;5137006;27;20440;-83
2023/06/22 08:55:08;;;;;;;8.10;6.30;;;26.10;57.00;;;;;;5136806;27;20377;-83
2023/06/22 08:57:34;;;;;;;8.35;7.00;;;25.30;99.90;;;;;;5117363;27;20558;-83
2023/06/22 09:00:00;;;;;;;10.18;6.50;;;25.40;99.70;;;;;;5127230;27;20943;-83
2023/06/22 09:02:30;;;;;;;8.87;6.47;;;26.40;99.90;;;;;;5136540;27;20387;-83
2023/06/22 09:04:56;;;;;;;7.50;5.93;;;25.60;99.90;;;;;;5136463;27;20407;-83
2023/06/22 09:07:23;;;;;;;8.03;5.90;;;25.70;99.90;;;;;;5117115;27;20955;-83
2023/06/22 09:09:49;;;;;;;8.50;6.18;;;25.70;99.90;;;;;;5108504;28;20396;-82
2023/06/22 09:12:15;;;;;;;12.43;6.63;;;26.00;99.90;;;;;;5116463;27;20388;-82
2023/06/22 09:14:40;;;;;;;8.60;6.10;;;26.10;99.90;;;;;;5097164;28;20399;-82
2023/06/22 09:17:06;;;;;;;11.30;6.10;;;26.40;61.60;;;;;;5096271;28;20383;-83
2023/06/22 09:19:32;;;;;;;8.57;6.50;;;26.70;97.30;;;;;;5117475;28;20415;-83
2023/06/22 09:21:58;;;;;;;7.53;5.70;;;26.70;46.20;;;;;;5137391;27;20467;-81
2023/06/22 09:24:23;;;;;;;8.93;5.93;;;26.60;4.80;;;;;;5149354;27;20370;-81
2023/06/22 09:26:50;;;;;;;10.10;6.40;;;26.80;10.10;;;;;;5133058;27;20408;-81
2023/06/22 09:29:15;;;;;;;10.65;6.10;;;27.00;5.20;;;;;;5122298;27;20753;-81
2023/06/22 09:31:41;;;;;;;9.43;5.50;;;27.10;2.40;;;;;;5124696;27;20408;-81
2023/06/22 09:34:07;;;;;;;8.18;5.65;;;27.10;2.70;;;;;;5119205;28;20377;-81
2023/06/22 09:36:32;;;;;;;10.68;6.72;;;27.10;1.00;;;;;;5131442;28;20506;-81
2023/06/22 09:38:58;;;;;;;10.53;5.60;;;27.30;1.30;;;;;;5135173;28;20521;-81
2023/06/22 09:41:24;;;;;;;8.63;5.88;;;27.70;1.00;;;;;;5126009;27;20424;-81
2023/06/22 09:43:50;;;;;;;8.23;6.07;;;27.70;1.00;;;;;;5112464;27;20465;-81
2023/06/22 09:46:16;;;;;;;9.10;6.20;;;27.70;1.00;;;;;;5111544;28;20957;-81
2023/06/22 09:48:42;;;;;;;7.85;5.63;;;27.60;1.00;;;;;;5112264;28;20384;-82
2023/06/22 09:51:07;;;;;;;9.53;5.50;;;27.90;1.00;;;;;;5112806;28;20400;-81
2023/06/22 09:53:34;;;;;;;11.23;5.60;;;28.20;1.00;;;;;;5092555;28;20388;-82
2023/06/22 09:56:00;;;;;;;11.00;6.70;;;28.20;1.00;;;;;;5106177;27;20393;-82
2023/06/22 09:58:26;;;;;;;10.85;5.68;;;28.20;1.00;;;;;;5134541;27;20375;-82
2023/06/22 10:00:52;;;;;;;8.93;5.90;;;28.40;1.00;;;;;;5136259;27;20749;-82
2023/06/22 10:03:18;;;;;;;10.88;5.53;;;28.40;1.00;;;;;;5136045;27;20386;-82
2023/06/22 10:05:43;;;;;;;8.20;5.33;;;28.50;1.00;;;;;;5131456;27;20478;-82
2023/06/22 10:08:10;;;;;;;8.30;5.63;;;28.60;1.00;;;;;;5114941;28;20368;-82
2023/06/22 10:10:35;;;;;;;6.60;5.78;;;28.60;1.00;;;;;;5115632;28;20407;-82
2023/06/22 10:13:11;;;;;;;8.60;6.90;;;28.80;1.00;;;;;;5115447;28;20401;-82
2023/06/22 10:15:37;;;;;;;9.65;6.30;;;28.30;1.00;;;;;;5114563;28;20754;-82
2023/06/22 10:18:03;;;;;;;7.75;6.45;;;28.20;16.20;;;;;;5115500;28;20372;-82
2023/06/22 10:20:29;;;;;;;8.38;6.13;;;28.40;1.00;;;;;;5115395;28;21073;-82
2023/06/22 10:22:54;;;;;;;8.48;6.85;;;28.70;1.00;;;;;;5128983;28;20888;-82
2023/06/22 10:25:21;;;;;;;7.83;6.90;;;28.80;1.00;;;;;;5135293;28;20387;-83
2023/06/22 10:27:46;;;;;;;8.90;6.53;;;29.10;1.00;;;;;;5123040;28;20467;-81
2023/06/22 10:30:13;;;;;;;10.55;7.65;;;29.10;1.00;;;;;;5129700;28;20885;-82
2023/06/22 10:32:39;;;;;;;9.48;7.00;;;28.90;1.00;;;;;;5134781;28;20453;-82
2023/06/22 10:35:05;;;;;;;8.68;7.65;;;28.50;1.00;;;;;;5147528;28;20366;-82
2023/06/22 10:37:31;;;;;;;10.10;7.05;;;28.50;1.00;;;;;;5141230;28;20392;-81
2023/06/22 10:39:56;;;;;;;11.97;7.47;;;28.30;1.00;;;;;;5115450;28;20422;-80
2023/06/22 10:42:22;;;;;;;13.30;7.30;;;28.30;1.00;;;;;;5135910;27;20425;-82
2023/06/22 10:44:48;;;;;;;9.60;7.10;;;28.40;1.00;;;;;;5139733;27;20387;-82
2023/06/22 10:47:13;;;;;;;11.20;6.77;;;28.30;1.00;;;;;;5122084;28;20898;-83
2023/06/22 10:49:39;;;;;;;9.63;7.10;;;28.50;1.00;;;;;;5119639;28;20404;-82
2023/06/22 10:52:08;;;;;;;8.80;6.60;;;28.40;1.00;;;;;;5139684;27;20382;-83
2023/06/22 10:54:34;;;;;;;7.38;6.40;;;28.50;1.00;;;;;;5120996;27;20375;-83
2023/06/22 10:57:01;;;;;;;7.93;6.55;;;28.60;1.00;;;;;;5120265;28;20368;-82
2023/06/22 10:59:27;;;;;;;10.18;6.78;;;28.50;1.00;;;;;;5119588;28;20376;-81
2023/06/22 11:01:53;;;;;;;9.77;6.65;;;28.60;1.00;;;;;;5119954;28;20384;-81
2023/06/22 11:04:18;;;;;;;9.13;7.07;;;28.60;1.00;;;;;;5135064;27;20424;-82
2023/06/22 11:06:44;;;;;;;9.65;7.35;;;28.50;1.00;;;;;;5139329;27;20397;-82
2023/06/22 11:09:10;;;;;;;9.00;7.30;;;28.40;1.00;;;;;;5118888;27;20446;-82
2023/06/22 11:11:35;;;;;;;7.95;6.93;;;28.00;1.00;;;;;;5118914;28;20427;-82
2023/06/22 11:14:01;;;;;;;9.27;7.47;;;28.60;1.00;;;;;;5117124;28;20385;-82
2023/06/22 11:16:27;;;;;;;8.67;7.30;;;28.80;1.00;;;;;;5117976;28;20385;-82
2023/06/22 11:18:52;;;;;;;11.90;7.50;;;28.90;10.50;;;;;;5119222;28;20854;-82
2023/06/22 11:21:18;;;;;;;9.00;6.50;;;28.60;1.00;;;;;;5119848;27;20388;-82
2023/06/22 11:23:44;;;;;;;10.30;7.17;;;28.60;1.70;;;;;;5119490;28;20463;-82
2023/06/22 11:26:10;;;;;;;8.57;7.63;;;28.90;1.00;;;;;;5118566;28;20403;-82
2023/06/22 11:28:35;;;;;;;10.02;6.85;;;29.30;1.00;;;;;;5123266;27;20424;-82
2023/06/22 11:31:01;;;;;;;9.07;7.63;;;29.20;1.00;;;;;;5119965;28;20404;-81
2023/06/22 11:33:27;;;;;;;9.30;7.30;;;29.60;1.00;;;;;;5119042;28;20773;-82
2023/06/22 11:35:52;;;;;;;10.90;7.55;;;29.70;1.00;;;;;;5118481;28;20464;-81
2023/06/22 11:38:18;;;;;;;9.60;8.03;;;29.60;1.00;;;;;;5119334;28;20764;-81
2023/06/22 11:40:44;;;;;;;10.37;7.60;;;29.40;1.00;;;;;;5119035;28;20417;-82
2023/06/22 11:43:09;;;;;;;10.20;7.60;;;29.10;1.00;;;;;;5119253;28;20461;-82
2023/06/22 11:45:35;;;;;;;10.32;8.20;;;28.90;1.00;;;;;;5126061;28;20492;-82
2023/06/22 11:48:00;;;;;;;8.00;7.20;;;28.80;1.00;;;;;;5119217;28;20384;-82
2023/06/22 11:50:26;;;;;;;10.52;8.02;;;28.70;1.00;;;;;;5118434;28;20411;-81
2023/06/22 11:52:52;;;;;;;10.52;8.00;;;28.20;6.30;;;;;;5117973;28;20810;-82
2023/06/22 11:55:18;;;;;;;10.82;7.65;;;28.40;8.10;;;;;;5116740;28;20964;-81
2023/06/22 11:57:56;;;;;;;10.73;6.90;;;28.50;8.40;;;;;;5118388;28;20385;-82
2023/06/22 12:00:23;;;;;;;9.32;6.97;;;28.50;15.00;;;;;;5115804;27;20839;-81
2023/06/22 12:02:51;;;;;;;8.98;6.45;;;28.60;1.00;;;;;;5140864;27;20474;-81
2023/06/22 12:05:17;;;;;;;8.65;7.07;;;28.60;1.00;;;;;;5135800;27;20463;-82
2023/06/22 12:07:43;;;;;;;9.88;7.30;;;28.60;5.80;;;;;;5127897;27;20385;-82
2023/06/22 12:10:09;;;;;;;9.90;6.90;;;28.50;17.70;;;;;;5119301;27;20477;-82
2023/06/22 12:12:35;;;;;;;9.52;7.38;;;28.50;1.00;;;;;;5116476;28;20719;-83
2023/06/22 12:15:03;;;;;;;10.70;6.20;;;28.50;1.00;;;;;;5101960;22;20481;-79
2023/06/22 12:17:29;;;;;;;8.87;6.53;;;28.70;1.00;;;;;;5053765;28;20829;-79
2023/06/22 12:19:55;;;;;;;7.80;6.80;;;28.60;1.00;;;;;;5054980;28;20399;-80
2023/06/22 12:22:20;;;;;;;7.40;6.60;;;28.60;1.00;;;;;;5075616;28;20754;-79
2023/06/22 12:24:46;;;;;;;8.50;6.80;;;28.70;1.00;;;;;;5063119;28;20474;-78
2023/06/22 12:27:11;;;;;;;11.10;7.70;;;29.40;1.00;;;;;;5057250;28;20395;-78
2023/06/22 12:29:37;;;;;;;12.50;8.60;;;28.60;1.00;;;;;;5057102;28;20492;-80
2023/06/22 12:32:03;;;;;;;13.75;9.30;;;27.70;5.10;;;;;;5053271;28;20397;-81
2023/06/22 12:34:28;;;;;;;11.63;9.57;;;27.90;21.60;;;;;;5052441;28;20384;-79
2023/06/22 12:36:54;;;;;;;14.40;9.40;;;27.60;39.80;;;;;;5054418;28;20401;-77
2023/06/22 12:39:20;;;;;;;13.33;9.23;;;27.50;66.60;;;;;;5036207;28;20440;-77
2023/06/22 12:41:45;;;;;;;9.55;7.93;;;27.50;60.30;;;;;;5055945;28;20925;-80
2023/06/22 12:44:11;;;;;;;10.50;7.97;;;27.50;30.20;;;;;;5052523;28;20393;-81